createdAt,value
2023-03-04T00:00:48.195Z,23.70
2023-03-04T00:03:16.729Z,21.80
2023-03-04T00:05:45.535Z,23.60
2023-03-04T00:08:13.826Z,21.20
2023-03-04T00:10:42.308Z,21.90
2023-03-04T00:13:28.397Z,22.20
2023-03-04T00:15:56.878Z,21.40
2023-03-04T00:18:26.492Z,23.00
2023-03-04T00:20:55.708Z,21.60
2023-03-04T00:23:24.265Z,22.00
2023-03-04T00:25:53.155Z,22.00
2023-03-04T00:28:21.738Z,20.50
2023-03-04T00:30:50.236Z,22.00
2023-03-04T00:33:18.908Z,22.20
2023-03-04T00:35:47.297Z,22.30
2023-03-04T00:38:16.888Z,22.80
2023-03-04T00:40:45.367Z,20.90
2023-03-04T00:43:14.438Z,19.60
2023-03-04T00:45:43.002Z,19.00
2023-03-04T00:48:12.980Z,19.40
2023-03-04T00:50:42.668Z,19.70
2023-03-04T00:53:11.046Z,18.40
2023-03-04T00:55:42.086Z,18.70
2023-03-04T00:58:10.874Z,18.80
2023-03-04T01:00:41.300Z,18.20
2023-03-04T01:03:09.786Z,18.30
2023-03-04T01:05:39.081Z,18.80
2023-03-04T01:08:07.700Z,18.60
2023-03-04T01:10:39.522Z,17.80
2023-03-04T01:13:07.902Z,18.60
2023-03-04T01:15:36.695Z,16.30
2023-03-04T01:18:09.509Z,16.40
2023-03-04T01:20:38.372Z,16.60
2023-03-04T01:23:06.766Z,17.70
2023-03-04T01:25:35.433Z,15.60
2023-03-04T01:28:04.317Z,15.50
2023-03-04T01:30:36.501Z,14.10
2023-03-04T01:33:06.799Z,14.60
2023-03-04T01:35:36.630Z,14.00
2023-03-04T01:38:05.397Z,15.10
2023-03-04T01:40:33.791Z,15.40
2023-03-04T01:43:02.979Z,14.80
2023-03-04T01:45:31.869Z,15.50
2023-03-04T01:48:01.997Z,15.00
2023-03-04T01:50:33.029Z,14.30
2023-03-04T01:53:02.328Z,15.40
2023-03-04T01:55:31.012Z,16.80
2023-03-04T01:57:59.489Z,14.80
2023-03-04T02:00:32.689Z,15.40
2023-03-04T02:03:09.202Z,15.30
2023-03-04T02:05:41.420Z,15.40
2023-03-04T02:08:09.800Z,15.60
2023-03-04T02:10:38.698Z,14.60
2023-03-04T02:13:07.283Z,15.30
2023-03-04T02:15:35.791Z,16.40
2023-03-04T02:18:21.247Z,15.40
2023-03-04T02:20:53.091Z,15.80
2023-03-04T02:23:57.838Z,15.30
2023-03-04T02:26:30.629Z,14.90
2023-03-04T02:29:01.142Z,16.00
2023-03-04T02:31:36.247Z,16.10
2023-03-04T02:34:12.633Z,15.30
2023-03-04T02:36:41.216Z,15.70
2023-03-04T02:39:12.566Z,16.00
2023-03-04T02:41:41.401Z,16.30
2023-03-04T02:44:19.124Z,16.90
2023-03-04T02:46:48.009Z,17.90
2023-03-04T02:49:17.352Z,16.60
2023-03-04T02:51:45.924Z,16.80
2023-03-04T02:54:16.360Z,17.20
2023-03-04T02:56:49.244Z,16.70
2023-03-04T02:59:18.025Z,18.50
2023-03-04T03:01:47.883Z,17.20
2023-03-04T03:04:16.522Z,17.40
2023-03-04T03:06:45.933Z,16.80
2023-03-04T03:09:17.578Z,15.70
2023-03-04T03:11:46.365Z,16.80
2023-03-04T03:14:14.996Z,16.50
2023-03-04T03:16:43.738Z,15.80
2023-03-04T03:19:12.727Z,16.30
2023-03-04T03:21:41.617Z,15.70
2023-03-04T03:24:10.209Z,15.60
2023-03-04T03:26:40.215Z,17.00
2023-03-04T03:29:09.415Z,15.50
2023-03-04T03:31:40.037Z,16.50
2023-03-04T03:34:09.273Z,16.00
2023-03-04T03:36:39.048Z,17.20
2023-03-04T03:39:12.516Z,17.10
2023-03-04T03:41:42.258Z,16.90
2023-03-04T03:44:10.434Z,16.70
2023-03-04T03:46:40.554Z,17.30
2023-03-04T03:49:09.029Z,17.10
2023-03-04T03:51:38.329Z,17.30
2023-03-04T03:54:06.812Z,17.00
2023-03-04T03:56:40.411Z,18.40
2023-03-04T03:59:09.096Z,18.20
2023-03-04T04:01:38.015Z,17.90
2023-03-04T04:04:06.569Z,18.00
2023-03-04T04:06:34.948Z,17.60
2023-03-04T04:09:03.327Z,18.00
2023-03-04T04:11:32.113Z,17.30
2023-03-04T04:14:00.401Z,17.50
2023-03-04T04:16:28.917Z,18.40
2023-03-04T04:18:57.659Z,18.80
2023-03-04T04:21:26.766Z,18.90
2023-03-04T04:23:55.658Z,17.90
2023-03-04T04:26:24.039Z,19.60
2023-03-04T04:28:52.401Z,18.00
2023-03-04T04:31:21.009Z,17.40
2023-03-04T04:33:49.386Z,19.00
2023-03-04T04:36:17.943Z,18.20
2023-03-04T04:38:51.139Z,19.60
2023-03-04T04:41:25.770Z,18.60
2023-03-04T04:43:54.037Z,18.30
2023-03-04T04:46:22.665Z,19.10
2023-03-04T04:48:51.304Z,17.40
2023-03-04T04:51:19.698Z,18.90
2023-03-04T04:53:49.305Z,19.20
2023-03-04T04:56:21.370Z,18.40
2023-03-04T04:58:49.896Z,18.90
2023-03-04T05:01:18.359Z,17.90
2023-03-04T05:03:58.683Z,18.80
2023-03-04T05:06:27.457Z,19.50
2023-03-04T05:08:55.935Z,17.70
2023-03-04T05:11:24.622Z,17.00
2023-03-04T05:13:53.103Z,17.20
2023-03-04T05:16:21.713Z,17.80
2023-03-04T05:18:50.270Z,17.40
2023-03-04T05:21:18.760Z,17.90
2023-03-04T05:23:47.337Z,16.50
2023-03-04T05:26:17.093Z,16.90
2023-03-04T05:28:45.743Z,17.70
2023-03-04T05:31:14.189Z,15.90
2023-03-04T05:33:43.001Z,16.20
2023-03-04T05:36:11.587Z,15.60
2023-03-04T05:38:40.060Z,15.40
2023-03-04T05:41:08.953Z,15.40
2023-03-04T05:43:38.660Z,15.50
2023-03-04T05:46:07.692Z,15.70
2023-03-04T05:48:36.245Z,15.20
2023-03-04T05:51:05.340Z,15.40
2023-03-04T05:53:37.192Z,14.60
2023-03-04T05:56:08.747Z,16.00
2023-03-04T05:58:37.534Z,15.30
2023-03-04T06:01:11.232Z,16.20
2023-03-04T06:03:39.857Z,15.00
2023-03-04T06:06:08.407Z,15.30
2023-03-04T06:08:37.703Z,16.70
2023-03-04T06:11:06.402Z,16.10
2023-03-04T06:13:36.418Z,15.60
2023-03-04T06:16:05.622Z,17.50
2023-03-04T06:18:33.976Z,16.10
2023-03-04T06:21:07.174Z,16.10
2023-03-04T06:23:35.752Z,14.90
2023-03-04T06:26:04.251Z,15.00
2023-03-04T06:28:34.964Z,14.80
2023-03-04T06:31:03.514Z,14.70
2023-03-04T06:33:32.849Z,14.40
2023-03-04T06:36:01.639Z,14.30
2023-03-04T06:38:30.777Z,15.50
2023-03-04T06:41:06.717Z,14.90
2023-03-04T06:43:35.368Z,14.60
2023-03-04T06:46:07.535Z,14.40
2023-03-04T06:48:36.840Z,15.30
2023-03-04T06:54:24.594Z,13.90
2023-03-04T06:56:53.484Z,14.00
2023-03-04T06:59:22.373Z,14.40
2023-03-04T07:01:50.946Z,14.30
2023-03-04T07:04:19.392Z,13.70
2023-03-04T07:06:48.646Z,14.30
2023-03-04T07:09:19.059Z,14.20
2023-03-04T07:11:48.455Z,13.30
2023-03-04T07:14:18.572Z,13.90
2023-03-04T07:16:47.404Z,14.80
2023-03-04T07:19:16.044Z,14.50
2023-03-04T07:21:44.524Z,14.00
2023-03-04T07:24:14.040Z,14.20
2023-03-04T07:26:42.614Z,14.00
2023-03-04T07:29:13.764Z,16.10
2023-03-04T07:31:42.231Z,14.60
2023-03-04T07:34:13.380Z,13.80
2023-03-04T07:36:42.588Z,13.40
2023-03-04T07:39:13.435Z,14.60
2023-03-04T07:41:42.609Z,13.10
2023-03-04T07:44:13.296Z,14.00
2023-03-04T07:46:43.870Z,12.80
2023-03-04T07:49:13.922Z,13.30
2023-03-04T07:51:42.168Z,12.80
2023-03-04T07:54:10.754Z,13.30
2023-03-04T07:56:38.990Z,13.40
2023-03-04T07:59:08.074Z,13.00
2023-03-04T08:01:37.314Z,13.00
2023-03-04T08:04:06.555Z,13.70
2023-03-04T08:06:36.466Z,13.90
2023-03-04T08:09:09.248Z,13.40
2023-03-04T08:11:38.209Z,13.70
2023-03-04T08:14:07.910Z,13.70
2023-03-04T08:16:36.211Z,13.50
2023-03-04T08:19:05.846Z,14.70
2023-03-04T08:21:34.380Z,12.50
2023-03-04T08:24:08.788Z,13.30
2023-03-04T08:26:42.213Z,13.60
2023-03-04T08:29:16.517Z,14.00
2023-03-04T08:31:48.730Z,12.60
2023-03-04T08:34:19.001Z,12.90
2023-03-04T08:36:52.294Z,13.00
2023-03-04T08:39:21.183Z,12.40
2023-03-04T08:41:49.975Z,11.20
2023-03-04T08:44:18.552Z,11.40
2023-03-04T08:46:47.033Z,10.80
2023-03-04T08:49:18.586Z,11.00
2023-03-04T08:51:47.170Z,12.30
2023-03-04T08:54:15.958Z,11.20
2023-03-04T08:56:44.741Z,11.50
2023-03-04T08:59:13.948Z,11.80
2023-03-04T09:01:42.208Z,12.90
2023-03-04T09:04:11.422Z,12.90
2023-03-04T09:06:41.199Z,11.90
2023-03-04T09:09:09.911Z,13.60
2023-03-04T09:11:41.469Z,12.70
2023-03-04T09:14:10.249Z,13.50
2023-03-04T09:16:38.937Z,14.30
2023-03-04T09:19:07.549Z,13.40
2023-03-04T09:21:40.916Z,13.50
2023-03-04T09:24:09.395Z,13.60
2023-03-04T09:26:38.006Z,12.70
2023-03-04T09:29:07.627Z,12.10
2023-03-04T09:31:36.438Z,11.30
2023-03-04T09:34:06.738Z,11.60
2023-03-04T09:36:35.187Z,11.30
2023-03-04T09:39:07.756Z,10.90
2023-03-04T09:41:42.796Z,10.50
2023-03-04T09:44:15.878Z,10.00
2023-03-04T09:46:46.031Z,9.70
2023-03-04T09:49:14.685Z,10.30
2023-03-04T09:51:49.113Z,9.30
2023-03-04T09:54:26.798Z,9.70
2023-03-04T09:57:06.445Z,10.10
2023-03-04T09:59:43.730Z,9.40
2023-03-04T10:02:23.982Z,10.30
2023-03-04T10:04:53.635Z,9.40
2023-03-04T10:10:48.948Z,10.00
2023-03-04T10:13:22.517Z,8.70
2023-03-04T10:15:54.131Z,9.90
2023-03-04T10:21:23.437Z,9.30
2023-03-04T10:23:53.816Z,10.10
2023-03-04T10:26:29.976Z,9.80
2023-03-04T10:28:58.349Z,9.20
2023-03-04T10:31:37.296Z,9.90
2023-03-04T10:34:07.260Z,11.20
2023-03-04T10:36:55.547Z,10.00
2023-03-04T10:39:42.543Z,9.20
2023-03-04T10:42:15.547Z,10.00
2023-03-04T10:44:52.789Z,11.00
2023-03-04T10:47:26.520Z,10.90
2023-03-04T10:50:01.069Z,11.20
2023-03-04T10:52:31.503Z,10.60
2023-03-04T10:55:01.389Z,11.50
2023-03-04T10:57:32.653Z,11.00
2023-03-04T11:00:01.107Z,12.50
2023-03-04T11:02:35.623Z,12.30
2023-03-04T11:05:17.922Z,12.30
2023-03-04T11:07:56.666Z,12.50
2023-03-04T11:10:27.395Z,13.10
2023-03-04T11:13:02.763Z,13.20
2023-03-04T11:15:31.821Z,12.00
2023-03-04T11:18:05.113Z,11.70
2023-03-04T11:20:36.660Z,11.80
2023-03-04T11:23:07.197Z,13.20
2023-03-04T11:25:49.390Z,12.60
2023-03-04T11:28:49.823Z,13.00
2023-03-04T11:31:26.014Z,12.30
2023-03-04T11:34:02.365Z,12.80
2023-03-04T11:36:37.287Z,12.80
2023-03-04T11:39:08.746Z,12.80
2023-03-04T11:41:39.378Z,12.30
2023-03-04T11:44:09.118Z,11.90
2023-03-04T11:46:55.601Z,12.50
2023-03-04T11:49:46.100Z,12.50
2023-03-04T11:52:17.451Z,12.30
2023-03-04T11:54:57.702Z,11.80
2023-03-04T11:57:42.563Z,11.00
2023-03-04T12:00:16.687Z,11.40
2023-03-04T12:02:50.786Z,11.60
2023-03-04T12:05:36.791Z,12.60
2023-03-04T12:08:22.520Z,12.40
2023-03-04T12:11:08.659Z,12.20
2023-03-04T12:14:02.431Z,12.80
2023-03-04T12:16:31.056Z,11.60
2023-03-04T12:19:17.318Z,12.90
2023-03-04T12:22:23.380Z,12.00
2023-03-04T12:25:10.834Z,12.30
2023-03-04T12:27:48.600Z,12.10
2023-03-04T12:30:47.815Z,11.90
2023-03-04T12:33:35.856Z,11.70
2023-03-04T12:36:07.492Z,11.30
2023-03-04T12:39:18.241Z,11.00
2023-03-04T12:41:50.634Z,12.30
2023-03-04T12:44:20.317Z,12.70
2023-03-04T12:47:11.804Z,13.80
2023-03-04T12:50:20.236Z,13.90
2023-03-04T12:53:30.577Z,13.90
2023-03-04T12:55:59.034Z,13.40
2023-03-04T12:58:30.003Z,14.20
2023-03-04T13:01:23.932Z,14.50
2023-03-04T13:04:11.410Z,12.90
2023-03-04T13:07:01.156Z,14.40
2023-03-04T13:09:42.422Z,14.50
2023-03-04T13:12:25.654Z,14.60
2023-03-04T13:15:10.135Z,15.80
2023-03-04T13:18:00.432Z,15.80
2023-03-04T13:20:31.541Z,15.50
2023-03-04T13:23:14.985Z,16.00
2023-03-04T13:25:50.808Z,16.00
2023-03-04T13:28:32.316Z,15.80
2023-03-04T13:31:09.960Z,15.50
2023-03-04T13:33:39.438Z,16.90
2023-03-04T13:36:26.629Z,18.50
2023-03-04T13:39:03.651Z,17.80
2023-03-04T13:41:51.792Z,17.00
2023-03-04T13:44:36.620Z,18.30
2023-03-04T13:47:27.887Z,18.00
2023-03-04T13:50:30.126Z,18.30
2023-03-04T13:53:01.354Z,19.00
2023-03-04T13:55:41.319Z,18.40
2023-03-04T13:58:18.253Z,19.50
2023-03-04T14:00:52.645Z,20.00
2023-03-04T14:03:26.214Z,20.20
2023-03-04T14:06:10.854Z,21.70
2023-03-04T14:08:39.433Z,20.80
2023-03-04T14:11:39.787Z,22.00
2023-03-04T14:14:12.341Z,20.00
2023-03-04T14:16:50.477Z,23.60
2023-03-04T14:19:36.247Z,23.10
2023-03-04T14:22:19.559Z,24.10
2023-03-04T14:25:04.272Z,22.30
2023-03-04T14:27:36.251Z,23.20
2023-03-04T14:32:34.182Z,22.70
2023-03-04T14:35:07.347Z,25.00
2023-03-04T14:37:49.880Z,24.70
2023-03-04T14:40:29.616Z,25.50
2023-03-04T14:43:01.815Z,25.20
2023-03-04T14:45:30.329Z,23.90
2023-03-04T14:48:01.907Z,25.30
2023-03-04T14:53:11.183Z,26.30
2023-03-04T14:56:04.739Z,26.60
2023-03-04T14:58:38.060Z,27.40
2023-03-04T15:01:17.732Z,26.80
2023-03-04T15:04:08.307Z,28.00
2023-03-04T15:07:01.744Z,27.70
2023-03-04T15:09:30.730Z,27.30
2023-03-04T15:12:04.507Z,28.20
2023-03-04T15:14:46.338Z,28.10
2023-03-04T15:20:11.344Z,29.00
2023-03-04T15:22:47.405Z,28.90
2023-03-04T15:25:16.315Z,31.20
2023-03-04T15:27:45.947Z,31.60
2023-03-04T15:30:19.597Z,33.90
2023-03-04T15:32:51.058Z,33.40
2023-03-04T15:35:19.806Z,33.90
2023-03-04T15:37:52.522Z,33.70
2023-03-04T15:40:24.074Z,34.80
2023-03-04T15:42:53.880Z,34.70
2023-03-04T15:45:24.621Z,36.60
2023-03-04T15:47:53.006Z,36.10
2023-03-04T15:50:21.902Z,36.90
2023-03-04T15:52:51.244Z,37.10
2023-03-04T15:55:21.512Z,35.90
2023-03-04T15:57:52.771Z,38.90
2023-03-04T16:00:21.841Z,38.20
2023-03-04T16:02:50.564Z,39.30
2023-03-04T16:05:19.014Z,38.80
2023-03-04T16:07:49.765Z,36.70
2023-03-04T16:10:20.964Z,38.90
2023-03-04T16:12:49.373Z,38.90
2023-03-04T16:15:28.392Z,38.90
2023-03-04T16:17:57.212Z,40.40
2023-03-04T16:20:29.055Z,40.50
2023-03-04T16:23:01.233Z,39.20
2023-03-04T16:25:31.209Z,42.00
2023-03-04T16:28:02.915Z,41.80
2023-03-04T16:30:31.888Z,42.50
2023-03-04T16:33:01.084Z,45.10
2023-03-04T16:35:30.787Z,44.10
2023-03-04T16:37:59.471Z,46.50
2023-03-04T16:40:29.814Z,46.00
2023-03-04T16:42:59.092Z,50.60
2023-03-04T16:45:30.460Z,51.80
2023-03-04T16:47:58.822Z,52.90
2023-03-04T16:50:28.445Z,53.60
2023-03-04T16:52:57.221Z,53.90
2023-03-04T16:55:27.867Z,54.00
2023-03-04T16:57:56.212Z,53.40
2023-03-04T17:00:25.730Z,54.90
2023-03-04T17:02:58.777Z,53.10
2023-03-04T17:05:29.721Z,55.90
2023-03-04T17:07:59.820Z,63.60
2023-03-04T17:10:28.556Z,68.20
2023-03-04T17:12:57.863Z,60.30
2023-03-04T17:15:27.468Z,57.50
2023-03-04T17:17:55.903Z,57.50
2023-03-04T17:20:28.842Z,59.10
2023-03-04T17:22:57.522Z,58.10
2023-03-04T17:25:25.894Z,55.90
2023-03-04T17:27:54.371Z,55.90
2023-03-04T17:30:23.881Z,55.80
2023-03-04T17:32:54.622Z,55.90
2023-03-04T17:35:25.906Z,56.20
2023-03-04T17:37:54.233Z,55.90
2023-03-04T17:40:24.356Z,57.10
2023-03-04T17:42:52.730Z,58.10
2023-03-04T17:45:21.199Z,55.60
2023-03-04T17:47:50.005Z,51.60
2023-03-04T17:50:22.782Z,53.00
2023-03-04T17:52:51.779Z,53.10
2023-03-04T17:55:20.261Z,52.50
2023-03-04T17:57:53.144Z,53.90
2023-03-04T18:00:22.043Z,55.00
2023-03-04T18:02:50.300Z,53.60
2023-03-04T18:05:18.694Z,53.70
2023-03-04T18:07:47.062Z,53.90
2023-03-04T18:10:17.915Z,55.70
2023-03-04T18:12:47.711Z,53.60
2023-03-04T18:15:17.407Z,56.40
2023-03-04T18:17:46.414Z,57.70
2023-03-04T18:20:15.213Z,56.70
2023-03-04T18:22:44.907Z,58.20
2023-03-04T18:25:13.797Z,52.90
2023-03-04T18:27:42.495Z,58.00
2023-03-04T18:30:13.649Z,58.80
2023-03-04T18:32:51.963Z,54.50
2023-03-04T18:35:22.710Z,58.10
2023-03-04T18:37:51.767Z,57.10
2023-03-04T18:40:20.340Z,55.80
2023-03-04T18:42:48.934Z,55.60
2023-03-04T18:45:21.723Z,58.10
2023-03-04T18:47:51.543Z,56.80
2023-03-04T18:50:22.259Z,56.60
2023-03-04T18:52:55.042Z,54.00
2023-03-04T18:55:23.627Z,55.50
2023-03-04T18:57:53.230Z,54.80
2023-03-04T19:00:22.549Z,54.60
2023-03-04T19:02:57.365Z,53.20
2023-03-04T19:05:27.778Z,52.20
2023-03-04T19:07:56.476Z,51.50
2023-03-04T19:10:26.192Z,52.50
2023-03-04T19:12:57.632Z,50.20
2023-03-04T19:15:26.321Z,50.30
2023-03-04T19:17:55.209Z,51.10
2023-03-04T19:20:23.798Z,48.90
2023-03-04T19:22:52.478Z,48.80
2023-03-04T19:25:21.168Z,48.00
2023-03-04T19:27:51.691Z,47.00
2023-03-04T19:30:20.279Z,47.20
2023-03-04T19:32:49.372Z,49.30
2023-03-04T19:35:18.428Z,45.30
2023-03-04T19:37:46.742Z,46.20
2023-03-04T19:40:15.445Z,45.20
2023-03-04T19:42:43.808Z,43.50
2023-03-04T19:45:12.180Z,45.30
2023-03-04T19:47:41.592Z,42.70
2023-03-04T19:50:16.522Z,41.20
2023-03-04T19:52:45.000Z,43.00
2023-03-04T19:55:20.747Z,43.10
2023-03-04T19:57:49.430Z,41.00
2023-03-04T20:00:18.687Z,41.90
2023-03-04T20:05:18.273Z,40.00
2023-03-04T20:07:50.315Z,40.70
2023-03-04T20:10:19.827Z,38.80
2023-03-04T20:12:48.196Z,39.30
2023-03-04T20:15:16.780Z,39.90
2023-03-04T20:17:45.464Z,39.20
2023-03-04T20:20:14.658Z,37.70
2023-03-04T20:22:44.688Z,38.00
2023-03-04T20:25:13.770Z,34.70
2023-03-04T20:27:43.376Z,35.70
2023-03-04T20:30:12.474Z,37.20
2023-03-04T20:32:41.168Z,38.90
2023-03-04T20:35:14.251Z,36.20
2023-03-04T20:37:42.628Z,33.70
2023-03-04T20:40:12.644Z,32.20
2023-03-04T20:42:40.914Z,33.50
2023-03-04T20:45:12.273Z,31.10
2023-03-04T20:47:41.055Z,30.50
2023-03-04T20:50:11.267Z,29.90
2023-03-04T20:52:42.107Z,30.00
2023-03-04T20:55:11.002Z,30.00
2023-03-04T20:57:40.315Z,31.30
2023-03-04T21:00:10.006Z,30.80
2023-03-04T21:02:40.226Z,30.90
2023-03-04T21:05:09.327Z,30.60
2023-03-04T21:07:37.658Z,30.60
2023-03-04T21:10:08.803Z,30.90
2023-03-04T21:12:37.324Z,30.70
2023-03-04T21:15:08.936Z,30.60
2023-03-04T21:17:40.123Z,31.50
2023-03-04T21:20:09.369Z,30.10
2023-03-04T21:22:37.907Z,30.10
2023-03-04T21:25:07.411Z,30.60
2023-03-04T21:27:42.762Z,30.80
2023-03-04T21:30:12.361Z,30.40
2023-03-04T21:32:40.748Z,28.40
2023-03-04T21:35:11.472Z,28.50
2023-03-04T21:37:42.009Z,29.20
2023-03-04T21:40:11.731Z,28.60
2023-03-04T21:42:40.179Z,28.40
2023-03-04T21:45:09.946Z,28.50
2023-03-04T21:47:38.922Z,28.50
2023-03-04T21:50:07.914Z,27.70
2023-03-04T21:52:37.724Z,29.20
2023-03-04T21:55:06.668Z,26.90
2023-03-04T21:57:36.426Z,27.20
2023-03-04T22:00:06.598Z,26.70
2023-03-04T22:02:40.452Z,24.90
2023-03-04T22:05:09.860Z,25.60
2023-03-04T22:07:38.131Z,25.30
2023-03-04T22:10:07.645Z,25.70
2023-03-04T22:12:36.630Z,27.00
2023-03-04T22:15:05.933Z,26.50
2023-03-04T22:17:35.411Z,26.80
2023-03-04T22:20:04.840Z,26.60
2023-03-04T22:22:36.392Z,25.30
2023-03-04T22:25:07.004Z,26.10
2023-03-04T22:27:35.406Z,25.90
2023-03-04T22:30:04.729Z,28.00
2023-03-04T22:32:33.362Z,25.60
2023-03-04T22:35:02.283Z,26.80
2023-03-04T22:37:30.874Z,25.70
2023-03-04T22:40:00.289Z,26.20
2023-03-04T22:42:28.854Z,25.70
2023-03-04T22:44:57.557Z,26.60
2023-03-04T22:47:25.816Z,26.10
2023-03-04T22:49:54.294Z,25.90
2023-03-04T22:52:28.837Z,27.10
2023-03-04T22:54:57.500Z,26.40
2023-03-04T22:57:26.078Z,25.90
2023-03-04T22:59:55.079Z,27.70
2023-03-04T23:02:24.561Z,27.50
2023-03-04T23:04:53.256Z,27.50
2023-03-04T23:07:22.047Z,27.00
2023-03-04T23:09:50.422Z,26.20
2023-03-04T23:12:18.905Z,26.60
2023-03-04T23:14:47.315Z,27.20
2023-03-04T23:17:15.966Z,26.60
2023-03-04T23:19:44.448Z,26.00
2023-03-04T23:22:17.737Z,27.30
2023-03-04T23:24:46.120Z,26.90
2023-03-04T23:27:14.701Z,26.20
2023-03-04T23:29:43.997Z,27.70
2023-03-04T23:32:12.505Z,26.00
2023-03-04T23:34:44.379Z,27.00
2023-03-04T23:37:12.733Z,27.10
2023-03-04T23:39:41.002Z,26.40
2023-03-04T23:42:09.478Z,25.60
2023-03-04T23:44:38.063Z,26.50
2023-03-04T23:47:08.280Z,27.40
2023-03-04T23:49:37.071Z,28.10
2023-03-04T23:52:06.721Z,26.10
2023-03-04T23:54:35.257Z,25.90
2023-03-04T23:57:03.745Z,28.70
2023-03-04T23:59:33.133Z,27.30
